createdAt,value
2023-03-23T15:58:56.728Z,2.10
2023-03-23T16:01:29.378Z,2.20
2023-03-23T16:04:06.911Z,2.10
2023-03-23T16:06:36.941Z,2.60
2023-03-23T16:09:08.062Z,3.20
2023-03-23T16:11:38.115Z,2.70
2023-03-23T16:14:07.482Z,2.60
2023-03-23T16:16:40.998Z,2.70
2023-03-23T16:19:12.941Z,2.60
2023-03-23T16:21:43.073Z,4.50
2023-03-23T16:24:12.633Z,9.90
2023-03-23T16:26:42.065Z,12.00
2023-03-23T16:29:28.978Z,6.40
2023-03-23T16:32:07.046Z,5.00
2023-03-23T16:34:39.404Z,4.00
2023-03-23T16:37:12.549Z,3.70
2023-03-23T16:39:42.116Z,4.00
2023-03-23T16:42:12.255Z,3.50
2023-03-23T16:44:42.562Z,3.60
2023-03-23T16:47:12.092Z,3.90
2023-03-23T16:49:41.235Z,3.60
2023-03-23T16:52:10.117Z,3.60
2023-03-23T16:54:38.708Z,3.20
2023-03-23T16:57:08.032Z,3.10
2023-03-23T16:59:36.900Z,3.50
2023-03-23T17:02:05.467Z,3.90
2023-03-23T17:04:34.677Z,4.10
2023-03-23T17:07:04.695Z,4.20
2023-03-23T17:09:34.404Z,3.80
2023-03-23T17:12:03.269Z,3.60
2023-03-23T17:14:32.124Z,3.80
2023-03-23T17:17:00.908Z,3.80
2023-03-23T17:19:31.303Z,3.60
2023-03-23T17:22:00.316Z,4.10
2023-03-23T17:24:30.477Z,4.00
2023-03-23T17:26:59.142Z,4.20
2023-03-23T17:29:27.771Z,3.40
2023-03-23T17:31:56.592Z,3.70
2023-03-23T17:34:25.561Z,3.40
2023-03-23T17:36:54.169Z,3.90
2023-03-23T17:39:22.640Z,3.30
2023-03-23T17:41:51.429Z,3.60
2023-03-23T17:44:20.734Z,3.40
2023-03-23T17:46:50.770Z,3.30
2023-03-23T17:49:20.780Z,3.30
2023-03-23T17:51:51.267Z,3.50
2023-03-23T17:54:20.914Z,3.60
2023-03-23T17:56:50.366Z,3.80
2023-03-23T17:59:23.722Z,3.70
2023-03-23T18:01:53.779Z,4.30
2023-03-23T18:04:22.912Z,4.50
2023-03-23T18:06:53.346Z,4.00
2023-03-23T18:09:22.550Z,4.00
2023-03-23T18:11:52.210Z,3.70
2023-03-23T18:14:23.662Z,4.10
2023-03-23T18:16:55.550Z,3.40
2023-03-23T18:19:26.832Z,4.30
2023-03-23T18:21:56.280Z,3.90
2023-03-23T18:24:29.228Z,4.00
2023-03-23T18:27:00.794Z,4.10
2023-03-23T18:29:30.188Z,4.30
2023-03-23T18:31:59.931Z,3.40
2023-03-23T18:34:32.022Z,3.40
2023-03-23T18:37:03.310Z,3.30
2023-03-23T18:39:40.104Z,3.10
2023-03-23T18:42:10.385Z,3.80
2023-03-23T18:44:39.268Z,3.00
2023-03-23T18:47:08.463Z,3.40
2023-03-23T18:49:37.252Z,3.10
2023-03-23T18:52:06.439Z,3.90
2023-03-23T18:54:35.339Z,3.70
2023-03-23T18:57:04.932Z,3.30
2023-03-23T18:59:34.888Z,3.80
2023-03-23T19:02:04.970Z,4.00
2023-03-23T19:04:34.740Z,3.60
2023-03-23T19:07:03.693Z,4.40
2023-03-23T19:09:35.359Z,4.90
2023-03-23T19:12:04.140Z,5.10
2023-03-23T19:14:35.285Z,4.90
2023-03-23T19:17:04.173Z,5.30
2023-03-23T19:19:34.188Z,4.70
2023-03-23T19:22:03.538Z,4.40
2023-03-23T19:24:33.267Z,4.50
2023-03-23T19:27:02.193Z,4.10
2023-03-23T19:29:31.072Z,4.20
2023-03-23T19:32:00.175Z,4.90
2023-03-23T19:34:30.881Z,4.80
2023-03-23T19:37:05.345Z,4.30
2023-03-23T19:39:36.303Z,4.30
2023-03-23T19:42:06.610Z,3.90
2023-03-23T19:44:37.717Z,4.30
2023-03-23T19:47:07.468Z,4.50
2023-03-23T19:49:36.640Z,4.00
2023-03-23T19:52:11.973Z,3.60
2023-03-23T19:54:43.228Z,3.90
2023-03-23T19:57:13.113Z,4.90
2023-03-23T19:59:42.454Z,4.10
2023-03-23T20:02:12.641Z,4.30
2023-03-23T20:04:42.131Z,4.20
2023-03-23T20:07:11.476Z,4.90
2023-03-23T20:09:40.504Z,3.90
2023-03-23T20:12:09.677Z,4.10
2023-03-23T20:14:45.129Z,4.40
2023-03-23T20:17:14.980Z,4.60
2023-03-23T20:19:44.575Z,4.50
2023-03-23T20:22:15.281Z,5.00
2023-03-23T20:24:48.296Z,4.70
2023-03-23T20:27:19.199Z,5.30
2023-03-23T20:29:48.509Z,5.20
2023-03-23T20:32:17.686Z,5.00
2023-03-23T20:34:49.554Z,5.60
2023-03-23T20:37:21.072Z,5.20
2023-03-23T20:39:50.746Z,5.20
2023-03-23T20:42:20.228Z,5.20
2023-03-23T20:44:49.337Z,5.00
2023-03-23T20:47:18.516Z,5.20
2023-03-23T20:49:53.153Z,5.60
2023-03-23T20:52:27.095Z,5.80
2023-03-23T20:54:56.964Z,6.30
2023-03-23T20:57:26.055Z,5.80
2023-03-23T20:59:56.904Z,5.10
2023-03-23T21:02:30.761Z,5.80
2023-03-23T21:05:05.762Z,6.10
2023-03-23T21:07:36.816Z,5.40
2023-03-23T21:10:07.780Z,6.20
2023-03-23T21:12:36.942Z,6.00
2023-03-23T21:15:06.613Z,6.30
2023-03-23T21:17:36.171Z,5.50
2023-03-23T21:20:08.335Z,5.90
2023-03-23T21:22:37.606Z,5.90
2023-03-23T21:25:07.718Z,5.70
2023-03-23T21:27:37.314Z,5.50
2023-03-23T21:30:07.247Z,5.80
2023-03-23T21:32:36.805Z,6.20
2023-03-23T21:35:07.181Z,6.80
2023-03-23T21:37:37.265Z,7.30
2023-03-23T21:40:13.742Z,6.60
2023-03-23T21:42:44.998Z,5.30
2023-03-23T21:45:21.225Z,5.20
2023-03-23T21:47:57.125Z,5.60
2023-03-23T21:50:25.914Z,6.10
2023-03-23T21:52:54.501Z,7.00
2023-03-23T21:55:23.258Z,6.30
2023-03-23T21:57:53.198Z,5.60
2023-03-23T22:00:23.526Z,5.60
2023-03-23T22:02:53.742Z,5.50
2023-03-23T22:05:24.392Z,5.80
2023-03-23T22:07:54.562Z,6.10
2023-03-23T22:10:23.139Z,5.90
2023-03-23T22:12:55.420Z,6.70
2023-03-23T22:15:28.393Z,6.40
2023-03-23T22:17:58.691Z,6.70
2023-03-23T22:20:29.610Z,6.30
2023-03-23T22:22:58.338Z,5.80
2023-03-23T22:25:27.331Z,5.20
2023-03-23T22:27:55.938Z,5.50
2023-03-23T22:30:24.836Z,5.20
2023-03-23T22:32:53.325Z,5.80
2023-03-23T22:35:22.282Z,4.60
2023-03-23T22:37:50.513Z,4.50
2023-03-23T22:40:19.951Z,4.70
2023-03-23T22:42:48.353Z,4.90
2023-03-23T22:45:17.544Z,5.00
2023-03-23T22:47:46.067Z,4.90
2023-03-23T22:50:14.931Z,5.00
2023-03-23T22:52:43.315Z,5.30
2023-03-23T22:55:11.735Z,5.60
2023-03-23T22:57:40.053Z,4.90
2023-03-23T23:00:15.189Z,5.10
2023-03-23T23:02:44.236Z,4.80
2023-03-23T23:05:13.854Z,4.70
2023-03-23T23:07:42.063Z,5.40
2023-03-23T23:10:10.450Z,5.30
2023-03-23T23:12:39.551Z,4.80
2023-03-23T23:15:09.070Z,5.30
2023-03-23T23:17:39.103Z,5.90
2023-03-23T23:20:12.971Z,5.80
2023-03-23T23:22:43.741Z,5.10
2023-03-23T23:25:13.435Z,5.30
2023-03-23T23:27:41.686Z,5.50
2023-03-23T23:30:11.183Z,4.90
2023-03-23T23:32:39.500Z,4.50
2023-03-23T23:35:08.051Z,4.30
2023-03-23T23:37:36.550Z,4.80
2023-03-23T23:40:10.927Z,4.30
2023-03-23T23:42:39.350Z,4.10
2023-03-23T23:45:10.456Z,4.00
2023-03-23T23:47:39.108Z,4.10
2023-03-23T23:50:10.481Z,4.10
2023-03-23T23:52:40.345Z,4.10
2023-03-23T23:55:10.665Z,3.90
2023-03-23T23:57:39.258Z,3.90
